createdAt,value
2024-05-09T00:00:12.728Z,23.02
2024-05-09T00:01:09.066Z,23.01
2024-05-09T00:02:08.140Z,23.02
2024-05-09T00:03:09.143Z,23.01
2024-05-09T00:04:08.090Z,23.01
2024-05-09T00:05:08.130Z,23.01
2024-05-09T00:06:08.252Z,23.01
2024-05-09T00:07:08.057Z,23.01
2024-05-09T00:08:08.069Z,23.01
2024-05-09T00:09:08.059Z,23.01
2024-05-09T00:10:11.828Z,23.02
2024-05-09T00:11:09.213Z,23.01
2024-05-09T00:12:08.424Z,23.01
2024-05-09T00:13:08.562Z,23.00
2024-05-09T00:14:08.140Z,23.00
2024-05-09T00:15:08.120Z,23.00
2024-05-09T00:16:08.127Z,22.99
2024-05-09T00:17:08.134Z,22.98
2024-05-09T00:18:08.633Z,22.98
2024-05-09T00:19:08.229Z,22.98
2024-05-09T00:20:14.409Z,22.98
2024-05-09T00:21:09.346Z,22.97
2024-05-09T00:22:08.131Z,22.98
2024-05-09T00:23:08.420Z,22.98
2024-05-09T00:24:08.134Z,22.99
2024-05-09T00:25:08.150Z,22.99
2024-05-09T00:26:08.242Z,22.99
2024-05-09T00:27:08.940Z,22.98
2024-05-09T00:28:08.162Z,22.98
2024-05-09T00:29:08.151Z,22.98
2024-05-09T00:30:11.579Z,22.97
2024-05-09T00:31:09.152Z,22.96
2024-05-09T00:32:08.287Z,22.96
2024-05-09T00:33:09.773Z,22.96
2024-05-09T00:34:08.349Z,22.97
2024-05-09T00:35:08.225Z,22.97
2024-05-09T00:36:08.158Z,22.97
2024-05-09T00:37:08.166Z,22.97
2024-05-09T00:38:08.358Z,22.97
2024-05-09T00:39:08.156Z,22.97
2024-05-09T00:40:15.342Z,22.96
2024-05-09T00:41:09.198Z,22.95
2024-05-09T00:42:08.175Z,22.95
2024-05-09T00:43:08.207Z,22.95
2024-05-09T00:44:08.191Z,22.94
2024-05-09T00:45:08.171Z,22.94
2024-05-09T00:46:08.177Z,22.94
2024-05-09T00:47:08.342Z,22.94
2024-05-09T00:48:09.634Z,22.93
2024-05-09T00:49:08.242Z,22.95
2024-05-09T00:50:12.890Z,22.95
2024-05-09T00:51:09.225Z,22.94
2024-05-09T00:52:08.184Z,22.94
2024-05-09T00:53:08.260Z,22.94
2024-05-09T00:54:08.193Z,22.96
2024-05-09T00:55:08.203Z,22.96
2024-05-09T00:56:08.241Z,22.96
2024-05-09T00:57:08.208Z,22.95
2024-05-09T00:58:08.187Z,22.94
2024-05-09T00:59:08.264Z,22.94
2024-05-09T01:00:22.132Z,22.94
2024-05-09T01:01:09.234Z,22.94
2024-05-09T01:02:08.246Z,22.94
2024-05-09T01:03:09.595Z,22.93
2024-05-09T01:04:08.308Z,22.92
2024-05-09T01:05:08.297Z,22.93
2024-05-09T01:06:08.205Z,22.92
2024-05-09T01:07:08.215Z,22.91
2024-05-09T01:08:08.795Z,22.92
2024-05-09T01:09:08.216Z,22.92
2024-05-09T01:10:14.111Z,22.93
2024-05-09T01:11:09.263Z,22.92
2024-05-09T01:12:08.433Z,22.93
2024-05-09T01:13:08.227Z,22.93
2024-05-09T01:14:08.251Z,22.93
2024-05-09T01:15:08.226Z,22.93
2024-05-09T01:16:08.240Z,22.93
2024-05-09T01:17:08.333Z,22.93
2024-05-09T01:18:08.300Z,22.93
2024-05-09T01:19:08.336Z,22.93
2024-05-09T01:20:10.916Z,22.92
2024-05-09T01:21:09.259Z,22.93
2024-05-09T01:22:08.251Z,22.92
2024-05-09T01:23:08.342Z,22.92
2024-05-09T01:24:08.238Z,22.92
2024-05-09T01:25:08.246Z,22.92
2024-05-09T01:26:08.265Z,22.92
2024-05-09T01:27:08.244Z,22.92
2024-05-09T01:28:08.252Z,22.91
2024-05-09T01:29:08.285Z,22.92
2024-05-09T01:30:11.915Z,22.91
2024-05-09T01:31:09.252Z,22.90
2024-05-09T01:32:08.376Z,22.91
2024-05-09T01:33:10.238Z,22.91
2024-05-09T01:34:08.258Z,22.90
2024-05-09T01:35:08.269Z,22.90
2024-05-09T01:36:08.272Z,22.91
2024-05-09T01:37:08.246Z,22.91
2024-05-09T01:38:08.296Z,22.91
2024-05-09T01:39:08.244Z,22.91
2024-05-09T01:40:12.268Z,22.90
2024-05-09T01:41:09.332Z,22.91
2024-05-09T01:42:08.263Z,22.91
2024-05-09T01:43:09.463Z,22.89
2024-05-09T01:44:08.328Z,22.89
2024-05-09T01:45:08.251Z,22.89
2024-05-09T01:46:08.262Z,22.88
2024-05-09T01:47:08.411Z,22.89
2024-05-09T01:48:08.576Z,22.89
2024-05-09T01:49:08.433Z,22.89
2024-05-09T01:50:10.791Z,22.90
2024-05-09T01:51:08.844Z,22.91
2024-05-09T01:52:08.642Z,22.90
2024-05-09T01:53:08.841Z,22.88
2024-05-09T01:54:08.758Z,22.89
2024-05-09T01:55:08.801Z,22.88
2024-05-09T01:56:08.885Z,22.90
2024-05-09T01:57:08.917Z,22.91
2024-05-09T01:58:09.112Z,22.91
2024-05-09T01:59:09.073Z,22.89
2024-05-09T02:00:10.320Z,22.88
2024-05-09T02:01:09.173Z,22.87
2024-05-09T02:02:09.323Z,22.87
2024-05-09T02:03:09.691Z,22.88
2024-05-09T02:04:09.418Z,22.87
2024-05-09T02:05:09.490Z,22.88
2024-05-09T02:06:09.505Z,22.87
2024-05-09T02:07:09.331Z,22.87
2024-05-09T02:08:09.351Z,22.87
2024-05-09T02:09:09.346Z,22.87
2024-05-09T02:10:16.192Z,22.87
2024-05-09T02:11:10.448Z,22.88
2024-05-09T02:12:09.521Z,22.88
2024-05-09T02:13:09.423Z,22.88
2024-05-09T02:14:09.402Z,22.87
2024-05-09T02:15:09.345Z,22.87
2024-05-09T02:16:09.348Z,22.87
2024-05-09T02:17:09.464Z,22.87
2024-05-09T02:18:09.510Z,22.87
2024-05-09T02:19:09.419Z,22.88
2024-05-09T02:20:13.263Z,22.87
2024-05-09T02:21:10.418Z,22.87
2024-05-09T02:22:09.358Z,22.87
2024-05-09T02:23:09.655Z,22.88
2024-05-09T02:24:09.362Z,22.86
2024-05-09T02:25:09.361Z,22.85
2024-05-09T02:26:09.400Z,22.86
2024-05-09T02:27:09.378Z,22.85
2024-05-09T02:28:09.355Z,22.84
2024-05-09T02:29:09.382Z,22.85
2024-05-09T02:30:18.541Z,22.85
2024-05-09T02:31:10.378Z,22.85
2024-05-09T02:32:09.464Z,22.85
2024-05-09T02:33:10.826Z,22.85
2024-05-09T02:34:09.452Z,22.86
2024-05-09T02:35:09.393Z,22.85
2024-05-09T02:36:09.369Z,22.86
2024-05-09T02:37:09.385Z,22.85
2024-05-09T02:38:09.539Z,22.85
2024-05-09T02:39:09.387Z,22.85
2024-05-09T02:40:14.373Z,22.85
2024-05-09T02:41:10.499Z,22.85
2024-05-09T02:42:09.397Z,22.85
2024-05-09T02:43:10.917Z,22.85
2024-05-09T02:44:09.427Z,22.85
2024-05-09T02:45:09.399Z,22.86
2024-05-09T02:46:09.388Z,22.85
2024-05-09T02:47:09.518Z,22.86
2024-05-09T02:48:09.469Z,22.85
2024-05-09T02:49:09.576Z,22.86
2024-05-09T02:50:13.272Z,22.85
2024-05-09T02:51:09.571Z,22.85
2024-05-09T02:52:09.466Z,22.85
2024-05-09T02:53:10.161Z,22.84
2024-05-09T02:54:09.458Z,22.84
2024-05-09T02:55:09.458Z,22.83
2024-05-09T02:56:09.527Z,22.84
2024-05-09T02:57:09.476Z,22.83
2024-05-09T02:58:09.596Z,22.83
2024-05-09T02:59:09.495Z,22.83
2024-05-09T03:00:15.228Z,22.83
2024-05-09T03:01:10.494Z,22.82
2024-05-09T03:02:09.576Z,22.83
2024-05-09T03:03:11.286Z,22.82
2024-05-09T03:04:09.547Z,22.82
2024-05-09T03:05:09.478Z,22.82
2024-05-09T03:06:09.477Z,22.82
2024-05-09T03:07:09.491Z,22.83
2024-05-09T03:08:09.709Z,22.82
2024-05-09T03:09:09.491Z,22.83
2024-05-09T03:10:18.222Z,22.83
2024-05-09T03:11:10.642Z,22.82
2024-05-09T03:12:09.586Z,22.82
2024-05-09T03:13:09.480Z,22.82
2024-05-09T03:14:09.529Z,22.83
2024-05-09T03:15:09.490Z,22.82
2024-05-09T03:16:09.506Z,22.83
2024-05-09T03:17:09.561Z,22.82
2024-05-09T03:18:09.882Z,22.82
2024-05-09T03:19:09.617Z,22.83
2024-05-09T03:20:16.906Z,22.83
2024-05-09T03:21:10.596Z,22.81
2024-05-09T03:22:09.496Z,22.81
2024-05-09T03:23:10.387Z,22.82
2024-05-09T03:24:09.700Z,22.82
2024-05-09T03:25:09.513Z,22.82
2024-05-09T03:26:09.576Z,22.81
2024-05-09T03:27:09.513Z,22.82
2024-05-09T03:28:09.509Z,22.83
2024-05-09T03:29:09.569Z,22.81
2024-05-09T03:30:10.026Z,22.82
2024-05-09T03:31:09.559Z,22.81
2024-05-09T03:32:09.578Z,22.81
2024-05-09T03:33:09.834Z,22.80
2024-05-09T03:34:09.693Z,22.81
2024-05-09T03:35:09.759Z,22.81
2024-05-09T03:36:11.188Z,22.81
2024-05-09T03:37:09.786Z,22.80
2024-05-09T03:38:10.025Z,22.80
2024-05-09T03:39:09.782Z,22.80
2024-05-09T03:40:17.514Z,22.80
2024-05-09T03:41:10.810Z,22.79
2024-05-09T03:42:09.789Z,22.80
2024-05-09T03:43:09.788Z,22.80
2024-05-09T03:44:09.864Z,22.80
2024-05-09T03:45:09.787Z,22.81
2024-05-09T03:46:09.797Z,22.81
2024-05-09T03:47:09.827Z,22.81
2024-05-09T03:48:10.140Z,22.81
2024-05-09T03:49:09.909Z,22.81
2024-05-09T03:50:18.026Z,22.81
2024-05-09T03:51:10.922Z,22.81
2024-05-09T03:52:09.814Z,22.80
2024-05-09T03:53:09.862Z,22.81
2024-05-09T03:54:09.802Z,22.80
2024-05-09T03:55:09.804Z,22.80
2024-05-09T03:56:09.889Z,22.80
2024-05-09T03:57:09.819Z,22.80
2024-05-09T03:58:09.814Z,22.80
2024-05-09T03:59:09.862Z,22.80
2024-05-09T04:00:17.627Z,22.80
2024-05-09T04:01:10.874Z,22.79
2024-05-09T04:02:09.908Z,22.79
2024-05-09T04:03:12.005Z,22.79
2024-05-09T04:04:09.850Z,22.80
2024-05-09T04:05:09.851Z,22.79
2024-05-09T04:06:09.829Z,22.80
2024-05-09T04:07:09.818Z,22.80
2024-05-09T04:08:10.573Z,22.79
2024-05-09T04:09:09.833Z,22.79
2024-05-09T04:10:17.000Z,22.79
2024-05-09T04:11:10.888Z,22.78
2024-05-09T04:12:10.008Z,22.79
2024-05-09T04:13:09.857Z,22.79
2024-05-09T04:14:09.936Z,22.79
2024-05-09T04:15:12.830Z,22.80
2024-05-09T04:16:09.833Z,22.79
2024-05-09T04:17:09.869Z,22.79
2024-05-09T04:18:10.012Z,22.80
2024-05-09T04:19:09.949Z,22.79
2024-05-09T04:20:12.506Z,22.79
2024-05-09T04:21:10.911Z,22.79
2024-05-09T04:22:09.879Z,22.79
2024-05-09T04:23:09.881Z,22.79
2024-05-09T04:24:09.843Z,22.79
2024-05-09T04:25:09.842Z,22.79
2024-05-09T04:26:09.928Z,22.78
2024-05-09T04:27:09.848Z,22.77
2024-05-09T04:28:09.846Z,22.77
2024-05-09T04:29:09.882Z,22.78
2024-05-09T04:30:18.378Z,22.77
2024-05-09T04:31:10.851Z,22.77
2024-05-09T04:32:18.193Z,22.74
2024-05-09T04:33:18.206Z,22.75
2024-05-09T04:34:18.185Z,22.76
2024-05-09T04:35:18.131Z,22.76
2024-05-09T04:36:18.097Z,22.76
2024-05-09T04:37:18.109Z,22.76
2024-05-09T04:38:18.206Z,22.77
2024-05-09T04:39:18.092Z,22.76
2024-05-09T04:40:27.659Z,22.77
2024-05-09T04:41:19.174Z,22.77
2024-05-09T04:42:18.113Z,22.78
2024-05-09T04:43:18.104Z,22.78
2024-05-09T04:44:18.150Z,22.79
2024-05-09T04:45:18.103Z,22.77
2024-05-09T04:46:18.106Z,22.77
2024-05-09T04:47:18.309Z,22.76
2024-05-09T04:48:18.285Z,22.76
2024-05-09T04:49:18.348Z,22.77
2024-05-09T04:50:29.004Z,22.77
2024-05-09T04:51:19.126Z,22.76
2024-05-09T04:52:18.130Z,22.76
2024-05-09T04:53:18.328Z,22.76
2024-05-09T04:54:26.227Z,22.76
2024-05-09T04:55:19.161Z,22.75
2024-05-09T04:56:18.151Z,22.75
2024-05-09T04:57:18.125Z,22.75
2024-05-09T04:58:18.129Z,22.75
2024-05-09T04:59:18.150Z,22.75
2024-05-09T05:00:25.783Z,22.75
2024-05-09T05:01:19.155Z,22.74
2024-05-09T05:02:18.232Z,22.74
2024-05-09T05:03:18.475Z,22.74
2024-05-09T05:04:18.434Z,22.75
2024-05-09T05:05:18.221Z,22.75
2024-05-09T05:06:18.141Z,22.75
2024-05-09T05:07:18.143Z,22.75
2024-05-09T05:08:19.145Z,22.76
2024-05-09T05:09:18.142Z,22.75
2024-05-09T05:10:25.288Z,22.74
2024-05-09T05:11:19.325Z,22.75
2024-05-09T05:12:18.292Z,22.74
2024-05-09T05:13:19.202Z,22.75
2024-05-09T05:14:18.210Z,22.75
2024-05-09T05:15:18.162Z,22.75
2024-05-09T05:16:18.159Z,22.74
2024-05-09T05:17:18.230Z,22.74
2024-05-09T05:18:18.946Z,22.74
2024-05-09T05:19:18.283Z,22.73
2024-05-09T05:20:27.379Z,22.73
2024-05-09T05:21:19.486Z,22.73
2024-05-09T05:22:18.177Z,22.73
2024-05-09T05:23:18.305Z,22.73
2024-05-09T05:24:18.179Z,22.74
2024-05-09T05:25:18.175Z,22.74
2024-05-09T05:26:18.236Z,22.75
2024-05-09T05:27:18.206Z,22.76
2024-05-09T05:28:18.193Z,22.77
2024-05-09T05:29:20.832Z,22.77
2024-05-09T05:30:25.030Z,22.77
2024-05-09T05:31:19.255Z,22.76
2024-05-09T05:32:18.416Z,22.76
2024-05-09T05:33:18.892Z,22.76
2024-05-09T05:34:18.189Z,22.75
2024-05-09T05:35:18.220Z,22.76
2024-05-09T05:36:18.196Z,22.76
2024-05-09T05:37:18.195Z,22.76
2024-05-09T05:38:18.297Z,22.76
2024-05-09T05:39:18.204Z,22.77
2024-05-09T05:40:27.990Z,22.77
2024-05-09T05:41:19.244Z,22.77
2024-05-09T05:42:18.209Z,22.78
2024-05-09T05:43:18.372Z,22.78
2024-05-09T05:44:18.255Z,22.78
2024-05-09T05:45:18.221Z,22.78
2024-05-09T05:46:18.208Z,22.76
2024-05-09T05:47:18.302Z,22.77
2024-05-09T05:48:18.909Z,22.77
2024-05-09T05:49:18.397Z,22.78
2024-05-09T05:50:27.294Z,22.77
2024-05-09T05:51:19.250Z,22.78
2024-05-09T05:52:18.237Z,22.79
2024-05-09T05:53:18.313Z,22.79
2024-05-09T05:54:18.240Z,22.79
2024-05-09T05:55:18.224Z,22.79
2024-05-09T05:56:18.255Z,22.79
2024-05-09T05:57:18.252Z,22.79
2024-05-09T05:58:18.230Z,22.78
2024-05-09T05:59:18.360Z,22.79
2024-05-09T06:00:29.121Z,22.79
2024-05-09T06:01:19.286Z,22.79
2024-05-09T06:02:18.366Z,22.79
2024-05-09T06:03:18.286Z,22.79
2024-05-09T06:04:18.290Z,22.79
2024-05-09T06:05:18.391Z,22.81
2024-05-09T06:06:18.269Z,22.82
2024-05-09T06:07:18.260Z,22.82
2024-05-09T06:08:18.300Z,22.82
2024-05-09T06:09:18.300Z,22.83
2024-05-09T06:10:25.182Z,22.83
2024-05-09T06:11:19.420Z,22.84
2024-05-09T06:12:18.355Z,22.83
2024-05-09T06:13:18.253Z,22.84
2024-05-09T06:14:18.379Z,22.85
2024-05-09T06:15:18.277Z,22.85
2024-05-09T06:16:18.281Z,22.87
2024-05-09T06:17:18.398Z,22.86
2024-05-09T06:18:18.615Z,22.87
2024-05-09T06:19:18.357Z,22.88
2024-05-09T06:20:23.990Z,22.88
2024-05-09T06:21:19.488Z,22.88
2024-05-09T06:22:18.269Z,22.89
2024-05-09T06:23:18.427Z,22.89
2024-05-09T06:24:18.275Z,22.89
2024-05-09T06:25:18.275Z,22.89
2024-05-09T06:26:18.407Z,22.90
2024-05-09T06:27:18.292Z,22.91
2024-05-09T06:28:18.282Z,22.90
2024-05-09T06:29:18.352Z,22.92
2024-05-09T06:31:18.282Z,22.91
2024-05-09T06:32:18.344Z,22.92
2024-05-09T06:33:18.596Z,22.93
2024-05-09T06:34:18.481Z,22.94
2024-05-09T06:35:18.400Z,22.93
2024-05-09T06:36:18.293Z,22.94
2024-05-09T06:37:18.325Z,22.96
2024-05-09T06:38:18.376Z,22.96
2024-05-09T06:39:18.296Z,22.96
2024-05-09T06:40:25.436Z,22.96
2024-05-09T06:41:19.391Z,22.96
2024-05-09T06:42:18.312Z,22.96
2024-05-09T06:43:19.611Z,22.98
2024-05-09T06:44:18.373Z,22.97
2024-05-09T06:45:18.304Z,23.02
2024-05-09T06:46:18.307Z,23.06
2024-05-09T06:47:18.445Z,23.08
2024-05-09T06:48:18.660Z,23.09
2024-05-09T06:49:18.529Z,23.10
2024-05-09T06:50:23.905Z,23.09
2024-05-09T06:51:19.353Z,23.08
2024-05-09T06:52:18.313Z,23.10
2024-05-09T06:53:18.377Z,23.16
2024-05-09T06:54:18.352Z,23.20
2024-05-09T06:55:18.321Z,23.21
2024-05-09T06:56:18.394Z,23.20
2024-05-09T06:57:18.354Z,23.19
2024-05-09T06:58:18.337Z,23.19
2024-05-09T06:59:18.475Z,23.20
2024-05-09T07:00:26.904Z,23.27
2024-05-09T07:01:19.388Z,23.31
2024-05-09T07:02:18.448Z,23.34
2024-05-09T07:03:19.470Z,23.34
2024-05-09T07:04:18.446Z,23.36
2024-05-09T07:05:18.490Z,23.34
2024-05-09T07:06:18.416Z,23.32
2024-05-09T07:07:18.360Z,23.31
2024-05-09T07:08:18.712Z,23.31
2024-05-09T07:09:18.364Z,23.30
2024-05-09T07:10:25.713Z,23.30
2024-05-09T07:11:19.418Z,23.32
2024-05-09T07:12:18.547Z,23.32
2024-05-09T07:13:18.358Z,23.31
2024-05-09T07:14:18.538Z,23.29
2024-05-09T07:15:18.370Z,23.29
2024-05-09T07:16:18.364Z,23.31
2024-05-09T07:17:18.454Z,23.34
2024-05-09T07:18:19.311Z,23.33
2024-05-09T07:19:18.563Z,23.32
2024-05-09T07:20:23.736Z,23.35
2024-05-09T07:21:19.562Z,23.37
2024-05-09T07:22:18.370Z,23.42
2024-05-09T07:23:18.653Z,23.47
2024-05-09T07:24:18.443Z,23.50
2024-05-09T07:25:18.381Z,23.52
2024-05-09T07:26:18.497Z,23.57
2024-05-09T07:27:18.365Z,23.59
2024-05-09T07:28:18.526Z,23.62
2024-05-09T07:29:18.450Z,23.62
2024-05-09T07:30:23.812Z,23.65
2024-05-09T07:31:19.460Z,23.64
2024-05-09T07:32:18.590Z,23.66
2024-05-09T07:33:19.367Z,23.69
2024-05-09T07:34:18.614Z,23.71
2024-05-09T07:35:18.488Z,23.65
2024-05-09T07:36:18.458Z,23.62
2024-05-09T07:37:18.446Z,23.61
2024-05-09T07:38:18.542Z,23.65
2024-05-09T07:39:18.645Z,23.65
2024-05-09T07:40:28.446Z,23.67
2024-05-09T07:41:19.507Z,23.64
2024-05-09T07:42:18.463Z,23.66
2024-05-09T07:43:18.478Z,23.69
2024-05-09T07:44:18.551Z,23.64
2024-05-09T07:47:14.416Z,23.60
2024-05-09T07:48:29.190Z,23.63
2024-05-09T07:51:31.643Z,23.65
2024-05-09T07:53:38.220Z,23.61
2024-05-09T07:54:19.724Z,23.59
2024-05-09T07:55:18.751Z,23.62
2024-05-09T07:56:20.118Z,23.64
2024-05-09T07:57:18.683Z,23.64
2024-05-09T07:58:18.596Z,23.65
2024-05-09T07:59:18.510Z,23.63
2024-05-09T08:00:23.811Z,23.63
2024-05-09T08:01:20.193Z,23.61
2024-05-09T08:02:18.656Z,23.60
2024-05-09T08:03:18.716Z,23.62
2024-05-09T08:04:18.626Z,23.66
2024-05-09T08:05:18.765Z,23.68
2024-05-09T08:06:18.532Z,23.67
2024-05-09T08:07:18.536Z,23.67
2024-05-09T08:08:18.572Z,23.65
2024-05-09T08:09:21.239Z,23.65
2024-05-09T08:10:22.249Z,23.69
2024-05-09T08:11:19.774Z,23.74
2024-05-09T08:12:18.646Z,23.76
2024-05-09T08:13:18.793Z,23.74
2024-05-09T08:14:18.655Z,23.76
2024-05-09T08:15:18.660Z,23.77
2024-05-09T08:16:18.921Z,23.76
2024-05-09T08:17:18.724Z,23.74
2024-05-09T08:18:18.707Z,23.75
2024-05-09T08:19:18.746Z,23.78
2024-05-09T08:20:26.899Z,23.76
2024-05-09T08:21:19.790Z,23.73
2024-05-09T08:22:18.696Z,23.77
2024-05-09T08:23:18.693Z,23.82
2024-05-09T08:24:18.672Z,23.82
2024-05-09T08:25:18.711Z,23.81
2024-05-09T08:26:18.682Z,23.80
2024-05-09T08:27:18.681Z,23.78
2024-05-09T08:28:18.822Z,23.76
2024-05-09T08:29:18.706Z,23.74
2024-05-09T08:30:24.948Z,23.72
2024-05-09T08:31:19.774Z,23.71
2024-05-09T08:32:18.702Z,23.71
2024-05-09T08:33:18.782Z,23.73
2024-05-09T08:34:18.800Z,23.76
2024-05-09T08:35:18.683Z,23.74
2024-05-09T08:36:18.705Z,23.73
2024-05-09T08:37:22.524Z,23.72
2024-05-09T08:38:19.713Z,23.69
2024-05-09T08:39:18.721Z,23.69
2024-05-09T08:40:27.279Z,23.69
2024-05-09T08:41:19.705Z,23.68
2024-05-09T08:42:18.695Z,23.67
2024-05-09T08:43:18.973Z,23.66
2024-05-09T08:44:18.706Z,23.67
2024-05-09T08:45:18.704Z,23.66
2024-05-09T08:46:19.086Z,23.66
2024-05-09T08:47:18.770Z,23.66
2024-05-09T08:48:19.060Z,23.66
2024-05-09T08:49:18.864Z,23.67
2024-05-09T08:50:28.920Z,23.66
2024-05-09T08:51:19.804Z,23.68
2024-05-09T08:52:18.814Z,23.67
2024-05-09T08:53:18.757Z,23.67
2024-05-09T08:54:18.771Z,23.69
2024-05-09T08:55:18.772Z,23.70
2024-05-09T08:56:18.757Z,23.69
2024-05-09T08:57:18.774Z,23.69
2024-05-09T08:58:18.840Z,23.69
2024-05-09T08:59:18.782Z,23.69
2024-05-09T09:00:29.249Z,23.69
2024-05-09T09:01:20.052Z,23.69
2024-05-09T09:02:19.221Z,23.70
2024-05-09T09:03:19.529Z,23.71
2024-05-09T09:04:19.113Z,23.73
2024-05-09T09:05:18.969Z,23.75
2024-05-09T09:06:18.787Z,23.77
2024-05-09T09:07:18.869Z,23.78
2024-05-09T09:08:18.787Z,23.77
2024-05-09T09:09:18.798Z,23.77
2024-05-09T09:10:28.962Z,23.75
2024-05-09T09:11:19.856Z,23.71
2024-05-09T09:12:18.820Z,23.74
2024-05-09T09:13:18.882Z,23.75
2024-05-09T09:14:18.813Z,23.78
2024-05-09T09:15:18.811Z,23.77
2024-05-09T09:16:19.082Z,23.75
2024-05-09T09:17:18.851Z,23.75
2024-05-09T09:18:19.297Z,23.73
2024-05-09T09:19:18.940Z,23.72
2024-05-09T09:20:25.975Z,23.70
2024-05-09T09:21:19.838Z,23.69
2024-05-09T09:22:18.906Z,23.70
2024-05-09T09:23:18.849Z,23.72
2024-05-09T09:24:18.829Z,23.75
2024-05-09T09:25:18.847Z,23.79
2024-05-09T09:26:18.848Z,23.82
2024-05-09T09:27:18.837Z,23.84
2024-05-09T09:28:18.862Z,23.84
2024-05-09T09:29:18.835Z,23.82
2024-05-09T09:30:31.661Z,23.84
2024-05-09T09:31:19.022Z,23.84
2024-05-09T09:32:18.939Z,23.86
2024-05-09T09:33:19.093Z,23.86
2024-05-09T09:34:19.041Z,23.87
2024-05-09T09:35:18.873Z,23.84
2024-05-09T09:36:18.851Z,23.83
2024-05-09T09:37:18.895Z,23.81
2024-05-09T09:38:18.876Z,23.79
2024-05-09T09:39:18.888Z,23.77
2024-05-09T09:40:22.294Z,23.76
2024-05-09T09:41:19.895Z,23.76
2024-05-09T09:42:18.919Z,23.76
2024-05-09T09:43:19.092Z,23.76
2024-05-09T09:44:18.867Z,23.75
2024-05-09T09:45:18.899Z,23.75
2024-05-09T09:46:19.006Z,23.74
2024-05-09T09:47:19.148Z,23.75
2024-05-09T09:48:18.972Z,23.76
2024-05-09T09:49:19.099Z,23.75
2024-05-09T09:50:27.280Z,23.75
2024-05-09T09:51:19.917Z,23.77
2024-05-09T09:52:19.004Z,23.78
2024-05-09T09:53:18.914Z,23.77
2024-05-09T09:54:18.916Z,23.76
2024-05-09T09:55:19.035Z,23.75
2024-05-09T09:56:18.911Z,23.75
2024-05-09T09:57:18.914Z,23.74
2024-05-09T09:58:18.972Z,23.74
2024-05-09T09:59:18.908Z,23.73
2024-05-09T10:00:24.547Z,23.74
2024-05-09T10:01:20.246Z,23.69
2024-05-09T10:02:19.343Z,23.63
2024-05-09T10:03:19.247Z,23.59
2024-05-09T10:04:19.137Z,23.55
2024-05-09T10:05:19.140Z,23.53
2024-05-09T10:06:18.947Z,23.51
2024-05-09T10:07:18.956Z,23.50
2024-05-09T10:08:18.923Z,23.48
2024-05-09T10:09:18.916Z,23.48
2024-05-09T10:10:26.913Z,23.46
2024-05-09T10:11:20.126Z,23.45
2024-05-09T10:12:18.958Z,23.46
2024-05-09T10:13:19.115Z,23.45
2024-05-09T10:14:18.942Z,23.44
2024-05-09T10:15:18.936Z,23.44
2024-05-09T10:16:19.174Z,23.44
2024-05-09T10:17:19.016Z,23.43
2024-05-09T10:18:19.067Z,23.43
2024-05-09T10:19:19.459Z,23.42
2024-05-09T10:20:24.674Z,23.42
2024-05-09T10:21:19.975Z,23.41
2024-05-09T10:22:19.033Z,23.42
2024-05-09T10:23:18.930Z,23.41
2024-05-09T10:24:18.957Z,23.42
2024-05-09T10:25:19.040Z,23.42
2024-05-09T10:26:18.945Z,23.42
2024-05-09T10:27:18.963Z,23.42
2024-05-09T10:28:19.068Z,23.42
2024-05-09T10:29:18.954Z,23.42
2024-05-09T10:30:26.088Z,23.41
2024-05-09T10:31:19.977Z,23.41
2024-05-09T10:32:19.097Z,23.42
2024-05-09T10:33:19.072Z,23.43
2024-05-09T10:34:19.410Z,23.44
2024-05-09T10:35:18.944Z,23.44
2024-05-09T10:36:18.943Z,23.45
2024-05-09T10:37:19.018Z,23.47
2024-05-09T10:38:18.970Z,23.50
2024-05-09T10:39:18.959Z,23.54
2024-05-09T10:40:26.074Z,23.56
2024-05-09T10:41:19.969Z,23.58
2024-05-09T10:42:18.992Z,23.62
2024-05-09T10:43:19.029Z,23.63
2024-05-09T10:44:18.973Z,23.63
2024-05-09T10:45:18.998Z,23.63
2024-05-09T10:46:19.377Z,23.62
2024-05-09T10:47:19.029Z,23.61
2024-05-09T10:48:19.083Z,23.60
2024-05-09T10:49:19.070Z,23.58
2024-05-09T10:50:25.680Z,23.58
2024-05-09T10:51:20.030Z,23.58
2024-05-09T10:52:19.109Z,23.61
2024-05-09T10:53:18.997Z,23.61
2024-05-09T10:54:18.990Z,23.62
2024-05-09T10:55:19.125Z,23.63
2024-05-09T10:56:19.005Z,23.62
2024-05-09T10:57:19.061Z,23.62
2024-05-09T10:58:19.114Z,23.63
2024-05-09T10:59:19.002Z,23.62
2024-05-09T11:00:27.542Z,23.61
2024-05-09T11:01:20.069Z,23.61
2024-05-09T11:02:19.099Z,23.62
2024-05-09T11:03:19.144Z,23.63
2024-05-09T11:04:19.169Z,23.63
2024-05-09T11:05:19.308Z,23.61
2024-05-09T11:06:19.043Z,23.60
2024-05-09T11:07:19.134Z,23.60
2024-05-09T11:08:19.019Z,23.60
2024-05-09T11:09:19.053Z,23.59
2024-05-09T11:10:27.263Z,23.60
2024-05-09T11:11:20.059Z,23.63
2024-05-09T11:12:21.302Z,23.66
2024-05-09T11:13:19.149Z,23.67
2024-05-09T11:14:19.030Z,23.68
2024-05-09T11:15:19.140Z,23.68
2024-05-09T11:16:19.276Z,23.68
2024-05-09T11:17:19.168Z,23.67
2024-05-09T11:18:20.946Z,23.68
2024-05-09T11:19:19.175Z,23.67
2024-05-09T11:20:26.768Z,23.67
2024-05-09T11:21:20.076Z,23.67
2024-05-09T11:22:19.124Z,23.67
2024-05-09T11:23:19.045Z,23.67
2024-05-09T11:24:19.070Z,23.68
2024-05-09T11:25:19.207Z,23.68
2024-05-09T11:26:19.053Z,23.68
2024-05-09T11:27:19.073Z,23.69
2024-05-09T11:28:19.195Z,23.70
2024-05-09T11:29:19.676Z,23.70
2024-05-09T11:30:26.953Z,23.70
2024-05-09T11:31:20.163Z,23.70
2024-05-09T11:32:19.078Z,23.70
2024-05-09T11:33:19.648Z,23.69
2024-05-09T11:34:19.153Z,23.70
2024-05-09T11:35:19.059Z,23.70
2024-05-09T11:36:19.086Z,23.71
2024-05-09T11:37:19.300Z,23.70
2024-05-09T11:38:19.111Z,23.71
2024-05-09T11:39:19.074Z,23.70
2024-05-09T11:40:25.298Z,23.71
2024-05-09T11:41:20.092Z,23.71
2024-05-09T11:42:19.082Z,23.70
2024-05-09T11:43:19.366Z,23.71
2024-05-09T11:44:19.090Z,23.73
2024-05-09T11:45:19.125Z,23.72
2024-05-09T11:46:19.274Z,23.72
2024-05-09T11:47:19.135Z,23.74
2024-05-09T11:48:19.172Z,23.75
2024-05-09T11:49:19.155Z,23.74
2024-05-09T11:50:26.636Z,23.74
2024-05-09T11:51:20.148Z,23.74
2024-05-09T11:52:19.182Z,23.74
2024-05-09T11:53:19.106Z,23.74
2024-05-09T11:54:19.107Z,23.73
2024-05-09T11:55:19.309Z,23.73
2024-05-09T11:56:19.107Z,23.72
2024-05-09T11:57:19.123Z,23.72
2024-05-09T11:58:19.494Z,23.71
2024-05-09T11:59:19.100Z,23.72
2024-05-09T12:00:28.974Z,23.73
2024-05-09T12:01:20.867Z,23.73
2024-05-09T12:02:19.363Z,23.74
2024-05-09T12:03:19.347Z,23.74
2024-05-09T12:04:19.361Z,23.76
2024-05-09T12:05:19.495Z,23.76
2024-05-09T12:06:19.134Z,23.77
2024-05-09T12:07:19.252Z,23.78
2024-05-09T12:08:19.164Z,23.79
2024-05-09T12:09:19.140Z,23.78
2024-05-09T12:10:22.467Z,23.76
2024-05-09T12:11:20.188Z,23.76
2024-05-09T12:12:19.133Z,23.76
2024-05-09T12:13:19.306Z,23.75
2024-05-09T12:14:19.125Z,23.76
2024-05-09T12:15:19.171Z,23.77
2024-05-09T12:16:19.272Z,23.77
2024-05-09T12:17:19.216Z,23.79
2024-05-09T12:18:19.176Z,23.79
2024-05-09T12:19:19.316Z,23.78
2024-05-09T12:20:28.287Z,23.78
2024-05-09T12:21:19.147Z,23.78
2024-05-09T12:22:19.281Z,23.78
2024-05-09T12:23:19.146Z,23.79
2024-05-09T12:24:19.359Z,23.80
2024-05-09T12:25:19.307Z,23.81
2024-05-09T12:26:19.149Z,23.82
2024-05-09T12:27:19.194Z,23.83
2024-05-09T12:28:19.250Z,23.83
2024-05-09T12:29:19.153Z,23.83
2024-05-09T12:30:32.106Z,23.84
2024-05-09T12:31:20.201Z,23.84
2024-05-09T12:32:19.256Z,23.84
2024-05-09T12:33:19.344Z,23.84
2024-05-09T12:34:19.216Z,23.85
2024-05-09T12:35:19.169Z,23.85
2024-05-09T12:36:19.171Z,23.86
2024-05-09T12:37:19.248Z,23.86
2024-05-09T12:38:19.167Z,23.87
2024-05-09T12:39:19.221Z,23.87
2024-05-09T12:40:30.611Z,23.88
2024-05-09T12:41:20.199Z,23.88
2024-05-09T12:42:26.782Z,23.88
2024-05-09T12:43:20.404Z,23.88
2024-05-09T12:44:19.195Z,23.88
2024-05-09T12:45:19.219Z,23.89
2024-05-09T12:46:19.339Z,23.90
2024-05-09T12:47:19.289Z,23.90
2024-05-09T12:48:19.340Z,23.89
2024-05-09T12:49:20.108Z,23.91
2024-05-09T12:50:28.884Z,23.91
2024-05-09T12:51:20.188Z,23.90
2024-05-09T12:52:19.260Z,23.92
2024-05-09T12:53:19.239Z,23.92
2024-05-09T12:54:19.203Z,23.92
2024-05-09T12:55:19.232Z,23.93
2024-05-09T12:56:19.208Z,23.94
2024-05-09T12:57:19.206Z,23.94
2024-05-09T12:58:19.464Z,23.94